Time;durP1;ratioP1;P1;durP2;ratioP2;P2;SDS_P1;SDS_P2;PMS_P1;PMS_P2;Temp;Humidity;BMP_temperature;BMP_pressure;BME280_temperature;BME280_humidity;BME280_pressure;Samples;Min_cycle;Max_cycle;Signal;HPM_P1;HPM_P2
2023/04/24 00:00:56;;;;;;;7.30;5.03;;;;;;;8.60;87.68;96637.63;6072303;29;20243;-42
2023/04/24 00:03:59;;;;;;;6.03;4.73;;;;;;;8.82;87.56;96669.38;6069021;29;20639;-44
2023/04/24 00:07:02;;;;;;;8.53;4.30;;;;;;;8.84;87.69;96675.25;6077676;29;20291;-43
2023/04/24 00:10:05;;;;;;;5.90;5.07;;;;;;;8.70;87.80;96654.41;6076189;29;20236;-43
2023/04/24 00:13:07;;;;;;;5.67;5.07;;;;;;;8.81;87.81;96663.25;6077025;29;20240;-45
2023/04/24 00:16:09;;;;;;;4.63;4.20;;;;;;;8.82;87.73;96672.03;6073062;29;20234;-46
2023/04/24 00:19:12;;;;;;;4.97;4.47;;;;;;;8.80;87.82;96672.28;6077771;29;20848;-43
2023/04/24 00:22:14;;;;;;;7.70;4.60;;;;;;;8.72;88.02;96675.44;6077156;29;20234;-45
2023/04/24 00:25:17;;;;;;;5.63;5.07;;;;;;;8.68;88.29;96661.06;6076940;29;20236;-45
2023/04/24 00:28:19;;;;;;;7.13;5.30;;;;;;;8.66;88.09;96660.50;6077105;29;20237;-42
2023/04/24 00:31:21;;;;;;;6.50;4.60;;;;;;;8.62;87.93;96656.75;6062778;29;20243;-42
2023/04/24 00:34:23;;;;;;;6.20;5.13;;;;;;;8.52;88.01;96662.78;6075557;29;20250;-44
2023/04/24 00:37:25;;;;;;;5.83;4.80;;;;;;;8.49;88.44;96660.66;6076870;29;20251;-43
2023/04/24 00:40:28;;;;;;;5.00;4.50;;;;;;;8.47;88.49;96666.22;6058207;29;20339;-44
2023/04/24 00:43:30;;;;;;;6.77;4.80;;;;;;;8.40;88.03;96668.25;6075863;29;20247;-46
2023/04/24 00:46:32;;;;;;;8.67;4.40;;;;;;;8.22;87.86;96650.81;6061836;29;20247;-43
2023/04/24 00:49:34;;;;;;;6.73;4.80;;;;;;;8.24;88.20;96662.00;6076280;29;20241;-42
2023/04/24 00:52:37;;;;;;;7.73;4.83;;;;;;;8.17;87.90;96668.53;6076838;29;20242;-44
2023/04/24 00:55:39;;;;;;;6.40;4.90;;;;;;;8.10;88.34;96658.16;6072913;29;20267;-43
2023/04/24 00:58:42;;;;;;;7.23;4.40;;;;;;;8.06;88.44;96666.84;6076934;29;20392;-43
2023/04/24 01:02:03;;;;;;;5.20;4.70;;;;;;;8.03;88.29;96673.47;6075164;29;20778;-43
2023/04/24 01:05:08;;;;;;;5.60;4.77;;;;;;;7.95;88.39;96660.66;6068080;29;20234;-43
2023/04/24 01:08:11;;;;;;;10.53;5.00;;;;;;;7.87;88.53;96675.13;6061263;29;20239;-45
2023/04/24 01:11:14;;;;;;;6.30;4.83;;;;;;;7.79;88.46;96688.06;6057362;29;20243;-47
2023/04/24 01:14:16;;;;;;;6.37;5.67;;;;;;;7.73;88.68;96692.47;6073866;29;20231;-43
2023/04/24 01:17:18;;;;;;;6.03;5.43;;;;;;;7.73;88.81;96685.34;6062824;29;20237;-44
2023/04/24 01:20:24;;;;;;;6.40;4.60;;;;;;;7.58;88.53;96648.03;6064745;29;20252;-42
2023/04/24 01:23:26;;;;;;;9.20;5.07;;;;;;;7.66;88.63;96683.91;6063543;29;20240;-44
2023/04/24 01:26:29;;;;;;;8.10;5.70;;;;;;;7.64;88.94;96691.34;6063641;29;20232;-45
2023/04/24 01:29:31;;;;;;;5.83;4.90;;;;;;;7.59;88.87;96691.28;6074212;29;20238;-43
2023/04/24 01:32:35;;;;;;;5.93;5.27;;;;;;;7.65;89.49;96684.97;6076253;29;20236;-44
2023/04/24 01:35:38;;;;;;;6.83;5.53;;;;;;;7.68;89.59;96698.50;6075426;29;20647;-43
2023/04/24 01:38:40;;;;;;;7.93;5.10;;;;;;;7.54;89.00;96689.38;6075528;29;20827;-45
2023/04/24 01:41:43;;;;;;;6.40;5.70;;;;;;;7.50;89.20;96698.84;6070671;29;20246;-43
2023/04/24 01:44:46;;;;;;;7.67;5.40;;;;;;;7.47;89.37;96694.03;6074986;29;20396;-43
2023/04/24 01:47:50;;;;;;;6.90;5.27;;;;;;;7.46;89.49;96681.84;6062806;29;20232;-43
2023/04/24 01:50:52;;;;;;;6.27;5.47;;;;;;;7.50;89.41;96680.28;6072346;29;20240;-46
2023/04/24 01:53:55;;;;;;;7.40;5.23;;;;;;;7.16;88.90;96638.00;6074303;29;20235;-42
2023/04/24 01:56:57;;;;;;;9.03;5.67;;;;;;;7.35;89.09;96674.81;6075353;29;20227;-46
2023/04/24 01:59:59;;;;;;;8.57;5.70;;;;;;;7.32;89.33;96670.00;6057048;29;20243;-44
2023/04/24 02:03:03;;;;;;;7.10;5.03;;;;;;;7.36;89.39;96663.94;6074040;29;20314;-47
2023/04/24 02:06:05;;;;;;;8.20;5.30;;;;;;;7.32;89.74;96651.44;6074743;29;20681;-45
2023/04/24 02:09:07;;;;;;;5.93;5.33;;;;;;;7.30;89.60;96653.56;6073016;29;20221;-45
2023/04/24 02:12:10;;;;;;;6.63;5.30;;;;;;;7.27;89.46;96660.13;6057060;29;20244;-46
2023/04/24 02:15:12;;;;;;;6.17;5.57;;;;;;;7.31;90.20;96653.28;6071877;29;20227;-48
2023/04/24 02:18:15;;;;;;;7.00;5.60;;;;;;;7.35;90.34;96649.13;6073412;29;20228;-46
2023/04/24 02:21:17;;;;;;;7.73;5.03;;;;;;;7.34;89.97;96652.00;6073009;29;20235;-47
2023/04/24 02:24:19;;;;;;;7.03;5.80;;;;;;;7.31;90.01;96642.69;6076378;29;20276;-48
2023/04/24 02:27:22;;;;;;;5.50;4.93;;;;;;;7.35;90.47;96638.50;6056937;29;20246;-47
2023/04/24 02:30:24;;;;;;;5.67;5.07;;;;;;;7.64;90.96;96651.56;6076089;29;20254;-48
2023/04/24 02:33:27;;;;;;;5.07;4.57;;;;;;;7.78;90.84;96657.28;6073696;29;20308;-48
2023/04/24 02:36:30;;;;;;;5.50;4.90;;;;;;;7.79;90.53;96659.69;6056511;29;20251;-42
2023/04/24 02:39:32;;;;;;;5.30;4.23;;;;;;;7.81;90.61;96646.19;6074339;29;20248;-42
2023/04/24 02:42:34;;;;;;;4.87;3.70;;;;;;;7.87;90.77;96655.78;6075893;29;20287;-43
2023/04/24 02:45:38;;;;;;;5.27;4.03;;;;;;;7.86;90.46;96652.34;6065570;29;20219;-42
2023/04/24 02:48:40;;;;;;;7.47;4.50;;;;;;;7.86;90.17;96643.56;6073815;29;20232;-42
2023/04/24 02:51:42;;;;;;;4.23;3.83;;;;;;;7.86;90.49;96648.88;6056739;29;20251;-42
2023/04/24 02:54:44;;;;;;;5.53;4.50;;;;;;;7.90;90.33;96650.00;6055727;29;20230;-43
2023/04/24 02:57:47;;;;;;;3.97;3.50;;;;;;;7.95;90.56;96642.88;6064226;29;20590;-42
2023/04/24 03:00:52;;;;;;;4.17;3.53;;;;;;;7.97;90.42;96648.72;6073288;29;20248;-43
2023/04/24 03:03:55;;;;;;;4.47;3.93;;;;;;;7.92;90.31;96638.06;6061646;29;20708;-43
2023/04/24 03:06:58;;;;;;;4.83;3.80;;;;;;;7.98;90.60;96642.41;6069705;29;20731;-42
2023/04/24 03:10:01;;;;;;;3.50;3.20;;;;;;;8.02;90.80;96640.03;6071853;29;20721;-43
2023/04/24 03:13:03;;;;;;;3.80;3.40;;;;;;;8.02;90.38;96632.84;6073033;29;20246;-44
2023/04/24 03:16:05;;;;;;;4.53;3.77;;;;;;;8.04;90.21;96637.13;6072103;29;20331;-43
2023/04/24 03:19:08;;;;;;;3.30;3.00;;;;;;;8.01;89.95;96639.22;6073396;29;20243;-43
2023/04/24 03:22:18;;;;;;;4.07;3.20;;;;;;;8.07;90.06;96626.00;6055023;29;20311;-44
2023/04/24 03:25:20;;;;;;;3.70;3.37;;;;;;;8.14;89.75;96622.09;6072838;29;20643;-43
2023/04/24 03:28:22;;;;;;;3.37;2.97;;;;;;;8.16;89.44;96624.50;6072635;29;20244;-43
2023/04/24 03:31:31;;;;;;;2.60;2.40;;;;;;;8.17;89.17;96618.13;6056535;29;20244;-43
2023/04/24 03:34:34;;;;;;;4.17;2.67;;;;;;;8.16;88.97;96632.47;6055945;29;20242;-43
2023/04/24 03:37:36;;;;;;;2.40;2.20;;;;;;;8.12;89.24;96632.16;6071795;29;20247;-42
2023/04/24 03:40:58;;;;;;;3.50;3.10;;;;;;;8.12;89.73;96631.34;6059147;29;20237;-42
2023/04/24 03:44:17;;;;;;;3.03;2.70;;;;;;;8.18;89.69;96633.03;6066240;29;20259;-42
2023/04/24 03:47:20;;;;;;;3.87;3.27;;;;;;;8.28;90.19;96639.22;6067789;29;20863;-43
2023/04/24 03:50:23;;;;;;;3.00;2.80;;;;;;;8.34;90.25;96645.38;6068712;29;20723;-43
2023/04/24 03:53:26;;;;;;;3.50;2.90;;;;;;;8.28;89.64;96641.06;6077057;29;20242;-44
2023/04/24 03:56:29;;;;;;;3.10;2.50;;;;;;;8.21;89.92;96628.00;6060302;29;20310;-43
2023/04/24 03:59:32;;;;;;;4.13;2.77;;;;;;;8.34;89.84;96644.56;6067421;29;20240;-43
2023/04/24 04:02:48;;;;;;;5.03;3.07;;;;;;;8.41;90.20;96639.88;6061164;29;20239;-42
2023/04/24 04:05:51;;;;;;;5.30;3.03;;;;;;;8.44;89.98;96642.03;6067753;29;20325;-42
2023/04/24 04:08:53;;;;;;;4.20;2.77;;;;;;;8.54;89.92;96644.75;6066025;29;20250;-43
2023/04/24 04:11:55;;;;;;;2.97;2.67;;;;;;;8.65;90.22;96640.31;6077363;29;20335;-43
2023/04/24 04:14:57;;;;;;;2.93;2.53;;;;;;;8.71;89.91;96648.06;6058755;29;20225;-47
2023/04/24 04:18:00;;;;;;;2.73;2.47;;;;;;;8.51;90.11;96608.09;6059155;29;20746;-44
2023/04/24 04:21:04;;;;;;;4.43;3.07;;;;;;;8.89;90.19;96656.69;6058406;29;20335;-43
2023/04/24 04:24:07;;;;;;;3.33;3.03;;;;;;;8.98;89.62;96650.63;6064261;29;20777;-43
2023/04/24 04:27:13;;;;;;;3.40;3.03;;;;;;;9.11;89.42;96656.53;6055520;29;20356;-43
2023/04/24 04:30:23;;;;;;;3.57;3.10;;;;;;;9.21;89.31;96656.59;6065732;29;20693;-44
2023/04/24 04:33:33;;;;;;;5.13;3.90;;;;;;;9.43;88.25;96651.13;6075773;29;20328;-44
2023/04/24 04:36:36;;;;;;;3.43;3.13;;;;;;;9.57;87.59;96655.72;6058488;29;20246;-42
2023/04/24 04:40:00;;;;;;;4.43;3.23;;;;;;;9.51;87.46;96640.00;6060627;29;20245;-43
2023/04/24 04:43:08;;;;;;;3.00;2.80;;;;;;;9.57;87.52;96649.59;6054748;29;20305;-43
2023/04/24 04:46:17;;;;;;;3.73;2.60;;;;;;;9.55;87.50;96651.69;6068534;29;20281;-45
2023/04/24 04:49:46;;;;;;;6.77;3.27;;;;;;;10.23;83.32;96649.75;6073239;29;20377;-44
2023/04/24 04:52:55;;;;;;;4.30;3.90;;;;;;;10.24;82.29;96637.25;6075661;29;20326;-44
2023/04/24 04:56:05;;;;;;;3.23;2.87;;;;;;;10.42;83.19;96657.25;6059858;29;20247;-43
2023/04/24 04:59:14;;;;;;;4.60;4.03;;;;;;;10.63;81.52;96658.03;6059653;29;20649;-42
2023/04/24 05:02:16;;;;;;;5.13;3.50;;;;;;;10.80;80.41;96655.91;6058555;29;20238;-44
2023/04/24 05:05:19;;;;;;;3.47;3.17;;;;;;;10.80;81.92;96645.25;6075400;29;20233;-43
2023/04/24 05:08:21;;;;;;;3.83;3.30;;;;;;;11.08;78.55;96657.19;6065092;29;20245;-44
2023/04/24 05:11:26;;;;;;;4.33;3.60;;;;;;;11.11;79.49;96660.13;6072426;29;20254;-43
2023/04/24 05:14:30;;;;;;;5.13;3.07;;;;;;;11.14;79.35;96660.66;6056740;29;20228;-43
2023/04/24 05:17:32;;;;;;;4.03;3.63;;;;;;;11.21;79.95;96671.84;6059704;29;20258;-45
2023/04/24 05:20:36;;;;;;;4.10;3.00;;;;;;;11.39;77.62;96665.94;6075265;29;20254;-43
2023/04/24 05:23:38;;;;;;;3.60;3.30;;;;;;;11.38;78.37;96661.66;6058833;29;20245;-44
2023/04/24 05:26:41;;;;;;;3.00;2.80;;;;;;;11.36;79.68;96661.91;6060718;29;20235;-46
2023/04/24 05:29:44;;;;;;;3.37;3.07;;;;;;;11.33;79.32;96657.16;6058299;29;20234;-44
2023/04/24 05:32:47;;;;;;;3.60;3.30;;;;;;;11.42;79.75;96669.91;6077240;29;20242;-45
2023/04/24 05:35:50;;;;;;;3.67;3.37;;;;;;;11.60;76.28;96663.97;6071262;29;20244;-44
2023/04/24 05:38:52;;;;;;;4.00;2.93;;;;;;;11.59;77.78;96676.53;6065522;29;20327;-45
2023/04/24 05:41:57;;;;;;;3.10;2.80;;;;;;;11.66;77.18;96668.22;6057063;29;20988;-43
2023/04/24 05:45:00;;;;;;;5.03;2.80;;;;;;;11.69;78.11;96675.69;6074050;29;20258;-45
2023/04/24 05:48:04;;;;;;;2.50;2.30;;;;;;;11.72;76.30;96682.31;6057314;29;20247;-47
2023/04/24 05:51:07;;;;;;;2.40;2.20;;;;;;;11.77;75.61;96660.97;6053830;29;20220;-46
2023/04/24 05:54:11;;;;;;;3.93;2.37;;;;;;;11.78;76.56;96658.03;6066811;29;20228;-46
2023/04/24 05:57:14;;;;;;;2.27;1.90;;;;;;;11.76;77.11;96670.03;6057215;29;20212;-44
2023/04/24 06:00:29;;;;;;;2.10;1.70;;;;;;;11.90;73.66;96662.28;6062138;29;20723;-46
2023/04/24 06:03:39;;;;;;;2.57;1.47;;;;;;;11.87;73.53;96650.25;6056948;29;20255;-46
2023/04/24 06:06:41;;;;;;;1.93;1.63;;;;;;;11.87;74.59;96676.94;6056994;29;20379;-46
2023/04/24 06:09:44;;;;;;;1.23;1.13;;;;;;;11.95;72.10;96668.38;6072444;29;20231;-46
2023/04/24 06:12:47;;;;;;;1.50;1.40;;;;;;;11.92;72.76;96674.28;6057557;29;20323;-44
2023/04/24 06:15:52;;;;;;;1.40;1.30;;;;;;;11.85;74.18;96668.44;6064944;29;20247;-45
2023/04/24 06:19:08;;;;;;;2.07;1.70;;;;;;;11.77;73.93;96667.13;6055334;29;21064;-44
2023/04/24 06:22:10;;;;;;;1.30;1.20;;;;;;;11.77;74.40;96672.47;6058285;29;20251;-46
2023/04/24 06:25:12;;;;;;;1.57;1.20;;;;;;;11.97;72.94;96668.91;6073144;29;20251;-44
2023/04/24 06:28:14;;;;;;;1.03;1.03;;;;;;;11.70;74.13;96615.13;6066416;29;20249;-44
2023/04/24 06:31:16;;;;;;;1.03;0.97;;;;;;;12.05;73.80;96659.53;6073382;29;20330;-45
2023/04/24 06:34:18;;;;;;;1.10;0.80;;;;;;;12.11;73.74;96661.88;6074222;29;20383;-45
2023/04/24 06:37:21;;;;;;;1.00;1.00;;;;;;;12.33;71.07;96663.34;6057860;29;20331;-45
2023/04/24 06:40:23;;;;;;;1.27;0.90;;;;;;;12.34;73.21;96670.28;6072971;29;20334;-44
2023/04/24 06:43:25;;;;;;;1.13;1.03;;;;;;;12.34;73.34;96668.41;6056412;29;20239;-48
2023/04/24 06:46:27;;;;;;;1.17;0.97;;;;;;;12.34;73.15;96679.09;6073672;29;20660;-44
2023/04/24 06:49:29;;;;;;;0.90;0.90;;;;;;;12.33;71.40;96661.47;6071583;29;20236;-48
2023/04/24 06:52:32;;;;;;;0.90;0.90;;;;;;;12.35;72.25;96677.22;6073147;29;20240;-47
2023/04/24 06:55:35;;;;;;;0.70;0.70;;;;;;;12.35;72.80;96663.88;6073395;29;20579;-43
2023/04/24 06:58:38;;;;;;;1.97;0.77;;;;;;;12.46;71.59;96677.94;6061482;29;20232;-48
2023/04/24 07:01:40;;;;;;;0.60;0.60;;;;;;;12.34;71.37;96681.75;6060603;29;20250;-45
2023/04/24 07:04:42;;;;;;;0.70;0.63;;;;;;;12.29;71.54;96686.34;6066911;29;20228;-46
2023/04/24 07:07:45;;;;;;;0.60;0.60;;;;;;;12.34;71.63;96695.13;6072817;29;20242;-45
2023/04/24 07:10:49;;;;;;;1.10;0.80;;;;;;;12.22;72.49;96683.19;6070444;29;20259;-48
2023/04/24 07:13:51;;;;;;;0.83;0.73;;;;;;;12.27;72.64;96702.66;6072401;29;20261;-43
2023/04/24 07:16:53;;;;;;;1.23;0.70;;;;;;;12.25;73.04;96701.31;6073510;29;20243;-45
2023/04/24 07:19:55;;;;;;;1.57;0.70;;;;;;;12.22;72.79;96702.69;6057294;29;20252;-44
2023/04/24 07:22:57;;;;;;;1.50;0.80;;;;;;;12.41;71.61;96702.81;6072973;29;20784;-47
2023/04/24 07:25:59;;;;;;;0.77;0.70;;;;;;;12.24;71.92;96705.88;6072609;29;20243;-48
2023/04/24 07:29:03;;;;;;;1.00;0.70;;;;;;;12.08;72.76;96704.38;6070183;29;20247;-46
2023/04/24 07:32:05;;;;;;;1.07;0.70;;;;;;;12.16;72.44;96717.13;6068156;29;20327;-47
2023/04/24 07:35:09;;;;;;;1.23;0.90;;;;;;;12.07;72.45;96719.59;6073334;29;20228;-45
2023/04/24 07:38:11;;;;;;;1.40;0.73;;;;;;;12.12;71.81;96722.22;6073057;29;20240;-48
2023/04/24 07:41:14;;;;;;;1.30;0.90;;;;;;;12.27;70.69;96720.56;6071966;29;20253;-46
2023/04/24 07:44:16;;;;;;;0.87;0.70;;;;;;;12.23;72.22;96714.94;6072616;29;20274;-47
2023/04/24 07:47:18;;;;;;;0.70;0.70;;;;;;;12.24;72.52;96721.09;6071213;29;20254;-49
2023/04/24 07:50:20;;;;;;;2.57;1.10;;;;;;;12.24;72.99;96721.09;6073816;29;20264;-47
2023/04/24 07:53:22;;;;;;;0.70;0.70;;;;;;;12.23;72.23;96732.84;6072740;29;20242;-49
2023/04/24 07:56:25;;;;;;;1.37;0.73;;;;;;;12.17;73.01;96745.44;6071949;29;20635;-50
2023/04/24 07:59:28;;;;;;;0.63;0.63;;;;;;;12.22;71.72;96742.75;6073491;29;20228;-48
2023/04/24 08:02:30;;;;;;;1.90;0.80;;;;;;;12.13;71.42;96744.38;6070754;29;20738;-49
2023/04/24 08:05:33;;;;;;;1.17;1.00;;;;;;;12.12;70.21;96746.25;6073016;29;20239;-49
2023/04/24 08:08:35;;;;;;;0.90;0.90;;;;;;;12.00;71.83;96751.09;6070847;29;20254;-45
2023/04/24 08:11:37;;;;;;;1.27;0.70;;;;;;;11.89;74.37;96752.22;6071732;29;20246;-44
2023/04/24 08:14:40;;;;;;;1.60;1.00;;;;;;;11.85;76.51;96759.97;6070073;29;20352;-43
2023/04/24 08:17:42;;;;;;;1.23;1.03;;;;;;;11.63;77.16;96762.94;6072029;29;20235;-43
2023/04/24 08:20:45;;;;;;;2.13;0.90;;;;;;;11.62;79.04;96768.53;6071831;29;20235;-43
2023/04/24 08:23:47;;;;;;;0.90;0.80;;;;;;;11.34;81.17;96762.72;6068690;29;20248;-43
2023/04/24 08:26:53;;;;;;;0.80;0.73;;;;;;;11.16;81.99;96773.13;6074909;29;20360;-43
2023/04/24 08:29:58;;;;;;;0.70;0.70;;;;;;;11.04;82.60;96771.56;6072564;29;20582;-44
2023/04/24 08:33:00;;;;;;;0.80;0.80;;;;;;;11.04;81.49;96768.88;6067416;29;20242;-45
2023/04/24 08:36:05;;;;;;;0.77;0.77;;;;;;;11.01;81.81;96769.41;6065148;29;20241;-43
2023/04/24 08:39:07;;;;;;;0.80;0.67;;;;;;;11.11;81.05;96785.41;6054543;29;20266;-44
2023/04/24 08:42:11;;;;;;;0.83;0.63;;;;;;;11.11;82.13;96790.72;6063882;29;20236;-44
2023/04/24 08:45:13;;;;;;;0.50;0.50;;;;;;;11.01;81.97;96784.59;6063950;29;20223;-44
2023/04/24 08:48:16;;;;;;;0.40;0.40;;;;;;;10.93;79.94;96785.91;6078593;29;20222;-45
2023/04/24 08:51:32;;;;;;;0.40;0.40;;;;;;;10.98;80.75;96796.56;6075538;29;20639;-44
2023/04/24 08:54:35;;;;;;;0.93;0.43;;;;;;;10.89;80.65;96792.88;6075702;29;20239;-43
2023/04/24 08:57:39;;;;;;;0.43;0.43;;;;;;;10.85;80.29;96797.13;6074996;29;20243;-45
2023/04/24 09:00:46;;;;;;;0.30;0.30;;;;;;;10.78;77.80;96804.56;6075633;29;20246;-43
2023/04/24 09:03:49;;;;;;;2.23;0.40;;;;;;;10.74;78.75;96804.31;6063785;29;20247;-44
2023/04/24 09:06:57;;;;;;;1.43;0.30;;;;;;;10.73;78.45;96800.03;6063837;29;20319;-46
2023/04/24 09:09:59;;;;;;;0.93;0.40;;;;;;;10.76;75.39;96764.88;6057601;29;20247;-43
2023/04/24 09:13:01;;;;;;;3.40;0.60;;;;;;;10.81;77.49;96809.38;6075314;29;20246;-43
2023/04/24 09:16:04;;;;;;;0.37;0.30;;;;;;;10.85;75.48;96810.44;6059184;29;20238;-43
2023/04/24 09:19:06;;;;;;;0.40;0.40;;;;;;;10.79;78.04;96806.97;6075315;29;20231;-44
2023/04/24 09:22:09;;;;;;;0.40;0.33;;;;;;;10.76;77.42;96815.47;6074031;29;20730;-44
2023/04/24 09:25:12;;;;;;;2.73;0.50;;;;;;;10.91;74.38;96825.38;6071729;29;20332;-47
2023/04/24 09:28:16;;;;;;;0.30;0.30;;;;;;;10.84;76.17;96824.84;6075179;29;20293;-43
2023/04/24 09:31:21;;;;;;;0.50;0.50;;;;;;;10.78;75.87;96816.00;6074562;29;20329;-46
2023/04/24 09:34:25;;;;;;;0.30;0.30;;;;;;;10.79;74.51;96816.84;6075356;29;20247;-43
2023/04/24 09:37:29;;;;;;;0.70;0.30;;;;;;;10.81;75.09;96823.50;6074760;29;20300;-44
2023/04/24 09:40:34;;;;;;;1.67;0.50;;;;;;;10.59;74.42;96786.44;6071932;29;20239;-43
2023/04/24 09:43:36;;;;;;;1.60;0.40;;;;;;;10.75;75.91;96821.09;6074853;29;20334;-45
2023/04/24 09:46:38;;;;;;;0.30;0.23;;;;;;;10.85;72.98;96821.09;6079329;29;20242;-45
2023/04/24 09:49:43;;;;;;;0.50;0.37;;;;;;;10.93;71.07;96819.75;6076980;29;20250;-43
2023/04/24 09:52:56;;;;;;;1.17;0.40;;;;;;;10.93;71.34;96819.75;6073831;29;20606;-43
2023/04/24 09:56:14;;;;;;;1.50;0.43;;;;;;;10.98;73.06;96814.44;6074600;29;20323;-43
2023/04/24 09:59:18;;;;;;;0.77;0.30;;;;;;;11.01;71.08;96821.91;6073908;29;20597;-42
2023/04/24 10:02:21;;;;;;;0.77;0.50;;;;;;;10.89;71.28;96805.41;6064396;29;20305;-43
2023/04/24 10:05:25;;;;;;;0.93;0.40;;;;;;;10.85;72.59;96821.91;6074648;29;20301;-43
2023/04/24 10:08:34;;;;;;;1.30;0.30;;;;;;;10.90;73.49;96820.31;6073962;29;20235;-44
2023/04/24 10:11:36;;;;;;;0.30;0.30;;;;;;;10.94;73.12;96829.38;6073448;29;20255;-43
2023/04/24 10:14:39;;;;;;;0.50;0.40;;;;;;;10.90;73.94;96820.31;6073336;29;20240;-43
2023/04/24 10:17:51;;;;;;;1.10;0.43;;;;;;;10.93;72.82;96828.56;6072822;29;20250;-44
2023/04/24 10:20:54;;;;;;;0.73;0.40;;;;;;;11.01;73.53;96828.03;6073289;29;20387;-46
2023/04/24 10:23:59;;;;;;;0.47;0.47;;;;;;;10.86;73.59;96814.69;6073421;29;20236;-44
2023/04/24 10:27:03;;;;;;;0.50;0.40;;;;;;;11.15;73.89;96831.00;6076775;29;20240;-44
2023/04/24 10:30:07;;;;;;;0.70;0.60;;;;;;;11.21;72.78;96824.59;6074488;29;20231;-44
2023/04/24 10:33:09;;;;;;;0.43;0.40;;;;;;;11.18;72.81;96826.97;6073909;29;20289;-46
2023/04/24 10:36:13;;;;;;;0.43;0.40;;;;;;;11.14;72.15;96823.25;6073578;29;20596;-44
2023/04/24 10:39:17;;;;;;;0.57;0.57;;;;;;;11.15;72.82;96838.97;6073097;29;20243;-45
2023/04/24 10:42:19;;;;;;;0.40;0.40;;;;;;;11.26;74.07;96827.25;6073102;29;20736;-44
2023/04/24 10:45:23;;;;;;;0.40;0.40;;;;;;;11.26;72.41;96839.78;6073944;29;20335;-45
2023/04/24 10:48:27;;;;;;;0.70;0.40;;;;;;;11.13;72.00;96797.66;6072952;29;20250;-43
2023/04/24 10:52:03;;;;;;;0.43;0.43;;;;;;;11.27;72.34;96841.38;6061419;29;20247;-44
2023/04/24 10:55:06;;;;;;;0.40;0.40;;;;;;;11.24;72.90;96845.38;6064802;29;20338;-47
2023/04/24 10:58:08;;;;;;;0.47;0.47;;;;;;;11.15;73.16;96840.84;6073560;29;20251;-44
2023/04/24 11:01:32;;;;;;;0.50;0.30;;;;;;;11.14;75.06;96847.25;6072429;29;20251;-44
2023/04/24 11:04:37;;;;;;;0.50;0.50;;;;;;;11.08;75.14;96838.44;6070874;29;20239;-45
2023/04/24 11:08:12;;;;;;;0.40;0.40;;;;;;;11.10;75.38;96839.78;6072404;29;20759;-44
2023/04/24 11:11:17;;;;;;;0.80;0.40;;;;;;;11.13;75.47;96854.44;6071830;29;20228;-44
2023/04/24 11:14:21;;;;;;;0.40;0.40;;;;;;;11.13;75.79;96843.75;6068127;29;20232;-46
2023/04/24 11:17:37;;;;;;;1.70;0.40;;;;;;;11.14;77.99;96845.38;6059323;29;20249;-46
2023/04/24 11:20:43;;;;;;;0.63;0.40;;;;;;;11.08;78.39;96847.25;6072116;29;20319;-45
2023/04/24 11:23:46;;;;;;;0.40;0.30;;;;;;;11.08;78.68;96857.91;6072228;29;20235;-43
2023/04/24 11:26:50;;;;;;;0.50;0.40;;;;;;;11.12;76.78;96855.50;6073074;29;20723;-48
2023/04/24 11:29:55;;;;;;;0.73;0.50;;;;;;;11.06;79.01;96841.38;6072992;29;20778;-44
2023/04/24 11:33:03;;;;;;;1.10;0.53;;;;;;;11.16;79.29;96853.13;6069613;29;20731;-44
2023/04/24 11:36:06;;;;;;;0.30;0.30;;;;;;;11.20;77.73;96854.97;6072200;29;20247;-46
2023/04/24 11:39:10;;;;;;;0.70;0.50;;;;;;;11.18;79.16;96856.31;6072858;29;20242;-44
2023/04/24 11:42:15;;;;;;;0.90;0.60;;;;;;;11.20;79.94;96849.66;6072017;29;20251;-44
2023/04/24 11:45:22;;;;;;;0.60;0.60;;;;;;;11.45;79.24;96850.72;6069579;29;20235;-43
2023/04/24 11:48:25;;;;;;;1.07;0.60;;;;;;;11.46;79.93;96846.97;6073982;29;20234;-43
2023/04/24 11:51:27;;;;;;;1.47;0.60;;;;;;;11.49;80.46;96833.91;6071859;29;20238;-43
2023/04/24 11:54:37;;;;;;;0.90;0.43;;;;;;;11.58;78.08;96839.53;6072289;29;20236;-44
2023/04/24 11:57:39;;;;;;;0.40;0.40;;;;;;;11.69;80.10;96837.63;6071670;29;20322;-43
2023/04/24 12:00:41;;;;;;;0.40;0.40;;;;;;;11.78;79.42;96831.47;6072316;29;20370;-46
2023/04/24 12:03:48;;;;;;;0.50;0.40;;;;;;;11.80;79.92;96828.53;6076891;29;20301;-44
2023/04/24 12:07:04;;;;;;;0.93;0.40;;;;;;;11.71;78.13;96811.47;6076289;29;20244;-47
2023/04/24 12:10:07;;;;;;;0.30;0.30;;;;;;;12.11;73.75;96822.06;6041402;29;20232;-44
2023/04/24 12:13:11;;;;;;;0.40;0.40;;;;;;;11.99;75.00;96821.56;6075152;29;20265;-46
2023/04/24 12:16:13;;;;;;;0.43;0.40;;;;;;;12.03;77.43;96824.50;6075612;29;20257;-44
2023/04/24 12:19:22;;;;;;;0.30;0.30;;;;;;;12.10;78.04;96823.13;6081794;29;20326;-44
2023/04/24 12:22:24;;;;;;;0.30;0.30;;;;;;;12.12;76.19;96815.66;6075866;29;20243;-49
2023/04/24 12:25:29;;;;;;;1.47;0.50;;;;;;;12.20;76.15;96813.50;6076220;29;20267;-45
2023/04/24 12:28:38;;;;;;;0.50;0.50;;;;;;;12.34;74.63;96809.16;6075830;29;20798;-44
2023/04/24 12:31:40;;;;;;;0.70;0.53;;;;;;;12.49;73.54;96817.09;6075599;29;20239;-47
2023/04/24 12:34:43;;;;;;;0.70;0.43;;;;;;;12.62;73.99;96808.50;6075327;29;20266;-46
2023/04/24 12:37:45;;;;;;;0.43;0.40;;;;;;;12.68;72.08;96808.47;6073779;29;20247;-46
2023/04/24 12:41:06;;;;;;;0.60;0.57;;;;;;;12.77;71.88;96812.94;6075202;29;20711;-46
2023/04/24 12:44:10;;;;;;;0.30;0.30;;;;;;;13.01;67.15;96817.63;6076010;29;20608;-46
2023/04/24 12:47:13;;;;;;;0.33;0.33;;;;;;;12.85;69.46;96812.34;6075734;29;20423;-44
2023/04/24 12:50:15;;;;;;;0.40;0.40;;;;;;;12.90;67.64;96817.66;6076336;29;20311;-45
2023/04/24 12:53:18;;;;;;;1.50;0.30;;;;;;;12.96;65.52;96809.63;6076352;29;20263;-46
2023/04/24 12:56:20;;;;;;;2.23;0.60;;;;;;;12.83;67.33;96805.69;6076124;29;20242;-45
2023/04/24 12:59:22;;;;;;;0.37;0.37;;;;;;;12.80;68.91;96807.03;6074828;29;20327;-47
2023/04/24 13:02:26;;;;;;;0.43;0.30;;;;;;;12.69;68.94;96805.50;6080759;29;20649;-49
2023/04/24 13:05:29;;;;;;;0.33;0.33;;;;;;;12.65;67.69;96807.13;6073926;29;20236;-46
2023/04/24 13:08:31;;;;;;;0.40;0.40;;;;;;;12.78;69.33;96803.84;6073420;29;20589;-46
2023/04/24 13:11:35;;;;;;;0.77;0.40;;;;;;;12.95;66.83;96794.63;6071908;29;20743;-48
2023/04/24 13:14:37;;;;;;;1.23;0.43;;;;;;;12.97;69.47;96806.66;6074789;29;20232;-49
2023/04/24 13:17:39;;;;;;;0.50;0.40;;;;;;;13.06;67.98;96798.84;6077210;29;20601;-50
2023/04/24 13:20:42;;;;;;;0.30;0.30;;;;;;;13.21;67.06;96798.72;6074612;29;20231;-50
2023/04/24 13:23:44;;;;;;;0.83;0.33;;;;;;;13.32;66.56;96796.78;6073794;29;20311;-50
2023/04/24 13:26:46;;;;;;;0.20;0.20;;;;;;;13.49;68.21;96797.16;6075916;29;20236;-49
2023/04/24 13:29:48;;;;;;;1.27;0.43;;;;;;;13.66;68.25;96792.19;6074891;29;20243;-46
2023/04/24 13:32:50;;;;;;;0.30;0.30;;;;;;;13.75;65.69;96794.25;6074174;29;20231;-49
2023/04/24 13:35:52;;;;;;;0.20;0.20;;;;;;;13.60;63.98;96789.88;6074129;29;20607;-44
2023/04/24 13:38:54;;;;;;;0.70;0.40;;;;;;;13.40;63.47;96788.97;6073298;29;20231;-43
2023/04/24 13:41:57;;;;;;;1.17;0.43;;;;;;;13.38;64.45;96783.09;6074506;29;20247;-43
2023/04/24 13:44:59;;;;;;;0.57;0.40;;;;;;;13.25;65.24;96783.75;6063093;29;20236;-45
2023/04/24 13:48:04;;;;;;;0.60;0.40;;;;;;;13.20;68.07;96796.31;6061805;29;20232;-43
2023/04/24 13:51:06;;;;;;;0.40;0.30;;;;;;;13.12;64.63;96787.84;6062562;29;20230;-43
2023/04/24 13:54:09;;;;;;;0.43;0.43;;;;;;;13.02;65.88;96795.94;6075175;29;20232;-44
2023/04/24 13:57:11;;;;;;;0.67;0.30;;;;;;;13.03;68.21;96792.19;6074343;29;20307;-44
2023/04/24 14:00:13;;;;;;;0.83;0.40;;;;;;;13.04;70.76;96788.41;6074335;29;20258;-44
2023/04/24 14:03:16;;;;;;;1.43;0.57;;;;;;;13.00;71.83;96790.03;6072381;29;20254;-44
2023/04/24 14:06:19;;;;;;;0.80;0.40;;;;;;;12.91;73.62;96789.88;6071473;29;20223;-44
2023/04/24 14:09:22;;;;;;;1.77;0.40;;;;;;;12.83;74.77;96803.81;6057157;29;20244;-43
2023/04/24 14:12:25;;;;;;;1.27;0.63;;;;;;;12.67;76.42;96794.31;6072906;29;20731;-43
2023/04/24 14:15:27;;;;;;;0.40;0.40;;;;;;;12.59;77.20;96798.34;6073464;29;20693;-43
2023/04/24 14:18:30;;;;;;;0.90;0.70;;;;;;;12.49;77.80;96802.94;6074846;29;20323;-44
2023/04/24 14:21:32;;;;;;;0.30;0.30;;;;;;;12.33;78.44;96802.22;6070879;29;20731;-45
2023/04/24 14:24:34;;;;;;;0.87;0.50;;;;;;;12.23;78.71;96797.72;6074046;29;20598;-45
2023/04/24 14:27:37;;;;;;;0.70;0.40;;;;;;;12.17;78.64;96798.00;6073197;29;20601;-44
2023/04/24 14:30:40;;;;;;;1.07;0.40;;;;;;;12.09;79.13;96802.84;6073757;29;20240;-45